Boulder City, Nevada Weather observations

Data are for observation ending at time listed.
 Day   Time    Ave.   Ave.  Ave.  Vector   Max.   Stn.    Total    Solar   Ave.  
  of    of     Air    Rel.  Wind   Wind    Wind   Baro.  Precip.   Rad.    Soil  
Year   Day     Temp.  Hum.  Speed  Dir.    Gust   Pres.                    Temp. 
2026   (PST)    F      %     mph   deg.    mph     mb.     in.     W/m2     F   
------------------------------------------------------------------------------
 243    0:00   86.4    34    5.5   226      9.4   928.4    0.00       0    97.8
 243    0:10   86.0    34    4.7   205      7.7   928.4    0.00       0    97.6
 243    0:20   85.7    35    4.8   215      7.1   928.3    0.00       0    97.6
 243    0:30   85.4    35    4.7   210      7.9   928.3    0.00       0    97.4
 243    0:40   85.6    34    4.2   199      7.7   928.2    0.00       0    97.3
 243    0:50   85.3    34    3.7   209      6.1   928.2    0.00       0    97.3
 243    1:00   85.2    34    5.2   218      8.0   928.1    0.00       0    97.1
 243    1:10   84.6    34    4.5   228      7.1   928.1    0.00       0    97.0
 243    1:20   83.8    35    3.4   215      5.6   928.1    0.00       0    96.8
 243    1:30   83.3    35    2.8   210      4.5   928.1    0.00       0    96.8
 243    1:40   83.0    34    2.8   206      4.4   928.1    0.00       0    96.7
 243    1:50   83.3    33    2.9   208      5.0   928.1    0.00       0    96.6
 243    2:00   83.0    33    2.1   193      2.9   928.1    0.00       0    96.5
 243    2:10   82.5    33    2.0   180      5.8   928.2    0.00       0    96.4
 243    2:20   83.0    37    4.0   176      8.0   928.3    0.00       0    96.3
 243    2:30   83.3    39    4.4   182      9.5   928.3    0.00       0    96.2
 243    2:40   83.8    39    5.1   172     10.8   928.3    0.00       0    96.0
 243    2:50   83.6    39    4.2   193      7.7   928.3    0.00       0    95.9
 243    3:00   82.7    40    3.5   240      6.1   928.4    0.00       0    95.9
 243    3:10   82.8    41    4.6   200     11.4   928.4    0.00       0    95.6
 243    3:20   83.1    41    4.7   191      7.5   928.5    0.00       0    95.5
 243    3:30   82.7    41    4.7   201      8.3   928.5    0.00       0    95.5
 243    3:40   82.7    41    4.3   184      7.2   928.5    0.00       0    95.4
 243    3:50   82.4    41    4.7   183      7.5   928.5    0.00       0    95.4
 243    4:00   82.1    41    3.8   179      7.0   928.5    0.00       0    95.2
 243    4:10   81.8    42    3.8   199      6.2   928.5    0.00       0    95.1
 243    4:20   81.7    42    3.7   206      6.1   928.5    0.00       0    95.1
 243    4:30   81.3    43    3.5   212      6.0   928.5    0.00       0    94.9
 243    4:40   80.8    44    3.6   211      5.0   928.5    0.00       0    94.8
 243    4:50   80.2    43    3.5   240      5.3   928.5    0.00       0    94.6
 243    5:00   80.3    41    4.0   248      6.7   928.5    0.00       0    94.6
 243    5:10   80.5    41    5.7   237     10.2   928.5    0.00       2    94.5
 243    5:20   81.2    43    7.2   201     14.3   928.6    0.00       5    94.5
 243    5:30   82.1    42    8.7   190     17.8   928.8    0.00      17    94.4
 243    5:40   82.3    42    6.0   197     11.0   929.0    0.00      42    94.3
 243    5:50   82.3    42    5.2   210      8.6   929.2    0.00      73    94.2
 243    6:00   82.5    40    4.3   220      8.8   929.5    0.00     102    94.0
 243    6:10   82.9    40    3.5   201      6.0   929.7    0.00     136    94.0
 243    6:20   83.7    39    2.9   173      6.0   930.0    0.00     170    93.9
 243    6:30   84.4    38    2.5   182      5.6   930.2    0.00     203    93.9
 243    6:40   84.5    38    2.7   219      4.8   930.4    0.00     236    93.7
 243    6:50   85.0    37    2.6   206      5.6   930.5    0.00     270    93.6
 243    7:00   85.8    38    4.1   154      8.3   930.7    0.00     306    93.5
 243    7:10   86.1    37    5.3   179     10.1   930.7    0.00     329    93.5
 243    7:20   86.5    36    4.6   174      9.4   930.9    0.00     359    93.5
 243    7:30   87.2    35    5.0   159     11.1   931.0    0.00     403    93.4
 243    7:40   87.4    34    4.1   156     12.7   931.1    0.00     436    93.3
 243    7:50   87.9    34    4.8   144     14.2   931.2    0.00     472    93.3
 243    8:00   87.7    34    6.5   152     14.5   931.2    0.00     510    93.3
 243    8:10   88.2    32    8.6   154     16.1   931.2    0.00     557    93.4
 243    8:20   88.4    31    8.9   145     18.4   931.2    0.00     594    93.3
 243    8:30   88.6    31    8.7   154     19.9   931.3    0.00     596    93.3
 243    8:40   88.7    31    7.0   146     16.4   931.3    0.00     610    93.5
 243    8:50   89.4    31    7.6   132     16.1   931.4    0.00     633    93.5
 243    9:00   89.4    29    9.0   152     19.4   931.5    0.00     658    93.6
 243    9:10   89.9    29    6.9   136     13.1   931.6    0.00     588    93.7
 243    9:20   90.7    29    6.3   145     13.6   931.6    0.00     694    93.8
 243    9:30   89.9    30    8.8   149     15.4   931.6    0.00     436    94.0
 243    9:40   89.9    29    7.3   156     17.0   931.6    0.00     318    94.1
 243    9:50   90.8    28    7.1   159     12.7   931.5    0.00      93    94.2
 243   10:00   91.3    27    8.6   140     17.9   931.4    0.00     351    94.3
 243   10:10   91.5    26    7.6   141     15.9   931.3    0.00     637    94.5
 243   10:20   92.5    25    9.6   153     19.5   931.4    0.00     697    94.7
 243   10:30   92.1    25    9.2   154     16.2   931.3    0.00     632    95.0
 243   10:40   92.5    25    8.9   161     17.8   931.3    0.00     797    95.0
 243   10:50   92.9    24    6.2   127     19.9   931.4    0.00     829    95.2
 243   11:00   93.3    24    8.3   118     18.0   931.4    0.00     829    95.5
 243   11:10   92.8    24   10.8   108     23.9   931.3    0.00     825    95.7
 243   11:20   93.5    24    8.9   123     24.6   931.1    0.00     862    95.9
 243   11:30   94.5    22   10.4   153     19.7   931.1    0.00     888    96.2
 243   11:40   94.9    22    9.3   150     17.6   930.8    0.00     895    96.3
 243   11:50   94.8    21    9.8   134     23.9   930.7    0.00     924    96.6
 243   12:00   94.6    21   11.8   152     22.6   930.6    0.00     681    96.7
 243   12:10   95.1    21   10.8   143     26.5   930.5    0.00     661    97.1
 243   12:20   95.0    21   11.1   145     24.0   930.4    0.00     906    97.4
 243   12:30   94.9    21   13.8   170     26.4   930.2    0.00     378    97.6
 243   12:40   94.2    21   11.1   158     23.2   930.1    0.00     480    97.9
 243   12:50   94.5    21   10.9   156     25.7   930.0    0.00     558    98.1
 243   13:00   95.1    20   11.8   154     27.2   929.8    0.00     808    98.3
 243   13:10   95.9    20   10.3   147     28.5   929.8    0.00     814    98.4
 243   13:20   95.4    20   11.2   153     29.8   929.8    0.00     487    98.7
 243   13:30   94.1    21    8.6   138     24.1   929.6    0.00     327    98.8
 243   13:40   94.2    21    9.6   152     21.9   929.4    0.00     455    99.0
 243   13:50   95.2    20   10.7   143     25.1   929.1    0.00     776    99.2
 243   14:00   95.0    21    9.7   128     27.5   929.2    0.00     611    99.3
 243   14:10   95.4    21   11.2   154     29.6   929.2    0.00     355    99.4
 243   14:20   95.1    20   11.4   150     24.9   929.1    0.00     596    99.6
 243   14:30   96.2    20    9.6   141     22.5   928.9    0.00     595    99.5
 243   14:40   94.9    21   11.1   158     26.6   928.8    0.00     211    99.7
 243   14:50   93.9    21    9.9   144     21.1   928.7    0.00     246    99.7
 243   15:00   94.6    21    9.1   157     25.8   928.5    0.00     502    99.7
 243   15:10   95.1    21    9.3   145     20.8   928.4    0.00     488    99.8
 243   15:20   95.2    21    9.5   153     20.0   928.4    0.00     416    100.0
 243   15:30   94.4    21   10.7   137     25.1   928.4    0.00     331    99.9
 243   15:40   95.5    20    7.2   144     20.2   928.3    0.00     469    100.1
 243   15:50   95.3    20    7.9   136     17.6   928.4    0.00     356    100.1
 243   16:00   94.7    22    9.9   141     21.9   928.3    0.00     348    100.0
 243   16:10   94.5    22   11.5   151     27.2   928.2    0.00     268    100.0
 243   16:20   93.6    22    9.5   139     23.3   928.0    0.00      77    100.0
 243   16:30   93.2    22    8.8   150     21.6   928.0    0.00     109    100.1
 243   16:40   93.7    21    9.9   153     22.1   927.9    0.00     194    100.0
 243   16:50   93.5    21    8.3   156     18.0   927.8    0.00     139    100.0
 243   17:00   93.8    22    8.0   145     19.7   927.8    0.00     162    100.0
 243   17:10   93.3    22    8.1   151     17.3   927.8    0.00     136    100.0
 243   17:20   93.1    23    9.2   152     23.4   927.8    0.00     119    100.0
 243   17:30   92.8    24    8.2   143     20.0   927.7    0.00      84    99.8
 243   17:40   91.9    26    9.7   150     25.5   927.7    0.00      43    99.8
 243   17:50   91.7    26    9.6   164     22.1   927.7    0.00      25    99.8
 243   18:00   91.4    26   10.9   164     21.3   927.8    0.00      17    99.6
 243   18:10   91.1    26    8.1   162     17.8   927.9    0.00       9    99.6
 243   18:20   90.7    28    7.8   172     16.2   928.0    0.00       2    99.5
 243   18:30   90.3    29    7.4   163     16.4   928.1    0.00       0    99.4
 243   18:40   90.0    29    6.7   169     15.1   928.1    0.00       0    99.4
 243   18:50   89.8    29    9.8   168     19.1   928.2    0.00       0    99.2
 243   19:00   89.6    29    7.6   179     15.7   928.3    0.00       0    99.1
 243   19:10   89.4    28    7.9   171     16.5   928.4    0.00       0    99.0
 243   19:20   89.2    28    7.9   167     18.6   928.5    0.00       0    98.9
 243   19:30   89.0    29    7.1   176     15.3   928.6    0.00       0    98.8
 243   19:40   88.7    30    7.2   176     14.6   928.7    0.00       0    98.7
 243   19:50   88.2    31    7.3   178     16.7   928.9    0.00       0    98.6
 243   20:00   87.9    31    7.3   178     13.7   929.0    0.00       0    98.4
 243   20:10   87.6    31    6.2   177     14.5   929.0    0.00       0    98.4
 243   20:20   87.1    31    8.1   174     15.5   929.1    0.00       0    98.4
 243   20:30   87.0    30    8.1   184     19.0   929.2    0.00       0    98.1
 243   20:40   86.8    29    6.7   186     12.9   929.3    0.00       0    98.1
 243   20:50   86.5    29    6.3   211     11.0   929.4    0.00       0    98.0
 243   21:00   86.1    30    5.8   224     14.2   929.5    0.00       0    97.9
 243   21:10   86.0    30    4.9   195      8.9   929.5    0.00       0    97.8
 243   21:20   85.8    30    5.4   173     11.7   929.7    0.00       0    97.6
 243   21:30   85.6    30    5.2   180     12.6   929.7    0.00       0    97.6
 243   21:40   85.3    31    6.9   214     14.9   929.8    0.00       0    97.5
 243   21:50   84.8    32    6.3   217     10.4   929.7    0.00       0    97.4
 243   22:00   84.7    32    7.9   209     13.4   929.7    0.00       0    97.3
 243   22:10   84.6    32    7.5   209     12.9   929.7    0.00       0    97.1
 243   22:20   84.2    33    7.1   204     12.5   929.7    0.00       0    96.8
 243   22:30   83.9    33    6.8   210     12.1   929.7    0.00       0    96.9
 243   22:40   83.3    34    6.3   217     10.1   929.8    0.00       0    96.7
 243   22:50   82.9    35    5.5   203     11.2   929.8    0.00       0    96.6
 243   23:00   82.9    35    6.5   184     10.7   929.8    0.00       0    96.5
 243   23:10   82.9    36    7.5   177     12.2   929.8    0.00       0    96.3
 243   23:20   82.8    36    7.7   174     15.3   929.9    0.00       0    96.3
 243   23:30   82.8    36    6.9   163     12.3   930.0    0.00       0    96.1
 243   23:40   82.6    36    8.0   158     15.4   930.0    0.00       0    96.0
 243   23:50   82.4    36    6.9   169     13.2   930.1    0.00       0    95.9

Return to Boulder City, Nevada graphs page.


Western Regional Climate Center,wrcc@dri.edu